Strauss, Kansas
Current Conditions -  °F | °C
As of 2:35 PM on Wednesday 26 Nov 2014 (Local Time) from KPTS Reporting Station
Overcast Overcast  
Wind Chill: 44°   Ceiling: 6000
Heat Index: 48°   Visibility: 10mi
Dew Point: 29°   Wind: 10mph
Humidity: 46%   Direction: 310°NW
Pressure: 30.09"   Gusts: 20mph
Location:  37.3318°N, 95.0213°W
Report Text: KPTS 262035Z AUTO 31009G17KT 10SM OVC060 09/M02 A3009 RMK AO2 T00911019
Loading
Personal Weather Stations






























Interactive Weather Map New forecast layout! Learn more

10-Day Weather Forecast

Advertisements
Track Severe Weather on mobile